sensor_id;sensor_type;location;lat;lon;timestamp;P1;durP1;ratioP1;P2;durP2;ratioP2
71648;SDS011;59492;45.638;11.714;2023-05-10T00:00:33;9.30;;;6.60;;
71648;SDS011;59492;45.638;11.714;2023-05-10T00:02:59;7.20;;;5.80;;
71648;SDS011;59492;45.638;11.714;2023-05-10T00:05:24;8.10;;;7.00;;
71648;SDS011;59492;45.638;11.714;2023-05-10T00:07:50;9.40;;;6.30;;
71648;SDS011;59492;45.638;11.714;2023-05-10T00:10:16;7.10;;;5.90;;
71648;SDS011;59492;45.638;11.714;2023-05-10T00:12:41;7.50;;;6.20;;
71648;SDS011;59492;45.638;11.714;2023-05-10T00:15:07;11.10;;;7.00;;
71648;SDS011;59492;45.638;11.714;2023-05-10T00:17:33;8.30;;;6.40;;
71648;SDS011;59492;45.638;11.714;2023-05-10T00:19:59;9.40;;;6.80;;
71648;SDS011;59492;45.638;11.714;2023-05-10T00:22:25;8.50;;;6.50;;
71648;SDS011;59492;45.638;11.714;2023-05-10T00:24:51;7.60;;;6.60;;
71648;SDS011;59492;45.638;11.714;2023-05-10T00:27:16;6.60;;;5.70;;
71648;SDS011;59492;45.638;11.714;2023-05-10T00:29:42;8.60;;;6.10;;
71648;SDS011;59492;45.638;11.714;2023-05-10T00:32:08;6.00;;;5.30;;
71648;SDS011;59492;45.638;11.714;2023-05-10T00:34:33;7.20;;;5.90;;
71648;SDS011;59492;45.638;11.714;2023-05-10T00:36:59;6.50;;;5.60;;
71648;SDS011;59492;45.638;11.714;2023-05-10T00:39:25;8.30;;;6.00;;
71648;SDS011;59492;45.638;11.714;2023-05-10T00:41:51;6.50;;;5.80;;
71648;SDS011;59492;45.638;11.714;2023-05-10T00:44:17;7.00;;;6.00;;
71648;SDS011;59492;45.638;11.714;2023-05-10T00:46:43;6.90;;;5.50;;
71648;SDS011;59492;45.638;11.714;2023-05-10T00:49:12;6.20;;;5.60;;
71648;SDS011;59492;45.638;11.714;2023-05-10T00:51:38;7.20;;;5.70;;
71648;SDS011;59492;45.638;11.714;2023-05-10T00:54:04;6.40;;;5.10;;
71648;SDS011;59492;45.638;11.714;2023-05-10T00:56:30;5.70;;;5.20;;
71648;SDS011;59492;45.638;11.714;2023-05-10T00:58:55;5.90;;;5.00;;
71648;SDS011;59492;45.638;11.714;2023-05-10T01:01:21;6.50;;;5.70;;
71648;SDS011;59492;45.638;11.714;2023-05-10T01:03:47;6.20;;;5.40;;
71648;SDS011;59492;45.638;11.714;2023-05-10T01:06:12;5.80;;;5.10;;
71648;SDS011;59492;45.638;11.714;2023-05-10T01:08:38;6.80;;;5.40;;
71648;SDS011;59492;45.638;11.714;2023-05-10T01:11:04;5.60;;;5.10;;
71648;SDS011;59492;45.638;11.714;2023-05-10T01:13:31;5.30;;;4.80;;
71648;SDS011;59492;45.638;11.714;2023-05-10T01:15:59;5.70;;;5.00;;
71648;SDS011;59492;45.638;11.714;2023-05-10T01:18:27;6.00;;;5.40;;
71648;SDS011;59492;45.638;11.714;2023-05-10T01:21:06;5.30;;;4.80;;
71648;SDS011;59492;45.638;11.714;2023-05-10T01:32:27;5.80;;;5.00;;
71648;SDS011;59492;45.638;11.714;2023-05-10T01:41:18;5.30;;;4.80;;
71648;SDS011;59492;45.638;11.714;2023-05-10T01:49:55;5.30;;;4.50;;
71648;SDS011;59492;45.638;11.714;2023-05-10T01:52:36;6.50;;;4.10;;
71648;SDS011;59492;45.638;11.714;2023-05-10T01:55:09;4.70;;;4.20;;
71648;SDS011;59492;45.638;11.714;2023-05-10T01:57:39;5.30;;;4.40;;
71648;SDS011;59492;45.638;11.714;2023-05-10T02:00:06;5.10;;;4.30;;
71648;SDS011;59492;45.638;11.714;2023-05-10T02:02:35;5.00;;;4.50;;
71648;SDS011;59492;45.638;11.714;2023-05-10T02:05:03;5.20;;;4.50;;
71648;SDS011;59492;45.638;11.714;2023-05-10T02:07:31;5.10;;;4.20;;
71648;SDS011;59492;45.638;11.714;2023-05-10T02:09:59;6.50;;;4.50;;
71648;SDS011;59492;45.638;11.714;2023-05-10T02:12:25;5.20;;;4.10;;
71648;SDS011;59492;45.638;11.714;2023-05-10T02:14:52;4.60;;;4.20;;
71648;SDS011;59492;45.638;11.714;2023-05-10T02:17:19;4.60;;;4.20;;
71648;SDS011;59492;45.638;11.714;2023-05-10T02:19:45;5.00;;;4.40;;
71648;SDS011;59492;45.638;11.714;2023-05-10T02:22:12;4.70;;;4.30;;
71648;SDS011;59492;45.638;11.714;2023-05-10T02:24:38;4.60;;;4.10;;
71648;SDS011;59492;45.638;11.714;2023-05-10T02:27:05;5.40;;;4.50;;
71648;SDS011;59492;45.638;11.714;2023-05-10T02:29:32;4.90;;;4.40;;
71648;SDS011;59492;45.638;11.714;2023-05-10T02:31:58;4.50;;;4.00;;
71648;SDS011;59492;45.638;11.714;2023-05-10T02:34:27;5.60;;;4.40;;
71648;SDS011;59492;45.638;11.714;2023-05-10T02:36:53;5.20;;;4.60;;
71648;SDS011;59492;45.638;11.714;2023-05-10T02:39:20;5.10;;;4.00;;
71648;SDS011;59492;45.638;11.714;2023-05-10T02:41:49;5.80;;;4.40;;
71648;SDS011;59492;45.638;11.714;2023-05-10T02:44:17;4.40;;;4.00;;
71648;SDS011;59492;45.638;11.714;2023-05-10T02:46:44;6.60;;;4.50;;
71648;SDS011;59492;45.638;11.714;2023-05-10T02:49:10;4.30;;;3.90;;
71648;SDS011;59492;45.638;11.714;2023-05-10T02:51:36;4.30;;;3.90;;
71648;SDS011;59492;45.638;11.714;2023-05-10T02:54:11;5.20;;;4.20;;
71648;SDS011;59492;45.638;11.714;2023-05-10T02:56:44;4.50;;;4.00;;
71648;SDS011;59492;45.638;11.714;2023-05-10T02:59:16;4.60;;;4.10;;
71648;SDS011;59492;45.638;11.714;2023-05-10T03:01:42;4.80;;;3.80;;
71648;SDS011;59492;45.638;11.714;2023-05-10T03:04:10;4.70;;;4.10;;
71648;SDS011;59492;45.638;11.714;2023-05-10T03:06:36;4.20;;;3.80;;
71648;SDS011;59492;45.638;11.714;2023-05-10T03:09:01;4.40;;;3.90;;
71648;SDS011;59492;45.638;11.714;2023-05-10T03:14:32;4.60;;;3.60;;
71648;SDS011;59492;45.638;11.714;2023-05-10T03:17:10;4.30;;;3.90;;
71648;SDS011;59492;45.638;11.714;2023-05-10T03:19:48;4.20;;;3.70;;
71648;SDS011;59492;45.638;11.714;2023-05-10T03:22:23;4.10;;;3.70;;
71648;SDS011;59492;45.638;11.714;2023-05-10T03:24:53;4.90;;;3.30;;
71648;SDS011;59492;45.638;11.714;2023-05-10T03:27:22;4.90;;;3.30;;
71648;SDS011;59492;45.638;11.714;2023-05-10T03:29:49;4.60;;;3.70;;
71648;SDS011;59492;45.638;11.714;2023-05-10T03:32:16;4.30;;;3.90;;
71648;SDS011;59492;45.638;11.714;2023-05-10T03:34:42;4.20;;;3.80;;
71648;SDS011;59492;45.638;11.714;2023-05-10T03:37:08;4.30;;;3.70;;
71648;SDS011;59492;45.638;11.714;2023-05-10T03:39:34;4.10;;;3.70;;
71648;SDS011;59492;45.638;11.714;2023-05-10T03:42:00;4.00;;;3.60;;
71648;SDS011;59492;45.638;11.714;2023-05-10T03:44:26;4.70;;;3.40;;
71648;SDS011;59492;45.638;11.714;2023-05-10T03:46:51;4.50;;;3.80;;
71648;SDS011;59492;45.638;11.714;2023-05-10T03:49:17;3.80;;;3.30;;
71648;SDS011;59492;45.638;11.714;2023-05-10T03:51:44;4.70;;;3.70;;
71648;SDS011;59492;45.638;11.714;2023-05-10T03:54:09;5.50;;;3.40;;
71648;SDS011;59492;45.638;11.714;2023-05-10T03:56:35;4.90;;;3.30;;
71648;SDS011;59492;45.638;11.714;2023-05-10T03:59:01;3.40;;;3.10;;
71648;SDS011;59492;45.638;11.714;2023-05-10T04:01:33;4.80;;;3.80;;
71648;SDS011;59492;45.638;11.714;2023-05-10T04:03:59;3.80;;;3.40;;
71648;SDS011;59492;45.638;11.714;2023-05-10T04:06:25;3.80;;;3.40;;
71648;SDS011;59492;45.638;11.714;2023-05-10T04:08:51;5.10;;;3.30;;
71648;SDS011;59492;45.638;11.714;2023-05-10T04:11:19;3.80;;;3.30;;
71648;SDS011;59492;45.638;11.714;2023-05-10T04:13:47;4.00;;;3.30;;
71648;SDS011;59492;45.638;11.714;2023-05-10T04:16:12;4.70;;;3.80;;
71648;SDS011;59492;45.638;11.714;2023-05-10T04:18:39;4.50;;;3.40;;
71648;SDS011;59492;45.638;11.714;2023-05-10T04:21:10;3.80;;;3.30;;
71648;SDS011;59492;45.638;11.714;2023-05-10T04:23:37;3.50;;;3.20;;
71648;SDS011;59492;45.638;11.714;2023-05-10T04:26:05;3.60;;;3.00;;
71648;SDS011;59492;45.638;11.714;2023-05-10T04:28:31;4.70;;;3.50;;
71648;SDS011;59492;45.638;11.714;2023-05-10T04:31:00;4.10;;;3.10;;
71648;SDS011;59492;45.638;11.714;2023-05-10T04:33:34;5.30;;;3.60;;
71648;SDS011;59492;45.638;11.714;2023-05-10T04:36:00;3.70;;;3.00;;
71648;SDS011;59492;45.638;11.714;2023-05-10T04:38:28;5.50;;;3.00;;
71648;SDS011;59492;45.638;11.714;2023-05-10T04:41:14;3.80;;;3.40;;
71648;SDS011;59492;45.638;11.714;2023-05-10T04:43:41;3.70;;;3.30;;
71648;SDS011;59492;45.638;11.714;2023-05-10T04:46:07;4.10;;;3.30;;
71648;SDS011;59492;45.638;11.714;2023-05-10T04:48:33;3.30;;;3.00;;
71648;SDS011;59492;45.638;11.714;2023-05-10T04:50:59;4.30;;;3.10;;
71648;SDS011;59492;45.638;11.714;2023-05-10T04:53:24;3.70;;;3.10;;
71648;SDS011;59492;45.638;11.714;2023-05-10T04:55:50;3.40;;;3.00;;
71648;SDS011;59492;45.638;11.714;2023-05-10T04:58:20;3.20;;;2.90;;
71648;SDS011;59492;45.638;11.714;2023-05-10T05:00:46;4.30;;;3.10;;
71648;SDS011;59492;45.638;11.714;2023-05-10T05:03:12;3.70;;;3.20;;
71648;SDS011;59492;45.638;11.714;2023-05-10T05:05:37;3.40;;;3.00;;
71648;SDS011;59492;45.638;11.714;2023-05-10T05:08:03;3.70;;;3.30;;
71648;SDS011;59492;45.638;11.714;2023-05-10T05:10:30;3.60;;;3.10;;
71648;SDS011;59492;45.638;11.714;2023-05-10T05:13:07;3.70;;;3.10;;
71648;SDS011;59492;45.638;11.714;2023-05-10T05:15:32;3.50;;;3.20;;
71648;SDS011;59492;45.638;11.714;2023-05-10T05:17:58;3.60;;;3.30;;
71648;SDS011;59492;45.638;11.714;2023-05-10T05:20:23;3.70;;;3.30;;
71648;SDS011;59492;45.638;11.714;2023-05-10T05:22:49;3.60;;;3.30;;
71648;SDS011;59492;45.638;11.714;2023-05-10T05:25:15;3.70;;;3.10;;
71648;SDS011;59492;45.638;11.714;2023-05-10T05:27:41;3.40;;;3.10;;
71648;SDS011;59492;45.638;11.714;2023-05-10T05:30:06;3.30;;;3.00;;
71648;SDS011;59492;45.638;11.714;2023-05-10T05:32:32;3.50;;;3.10;;
71648;SDS011;59492;45.638;11.714;2023-05-10T05:34:58;3.20;;;2.90;;
71648;SDS011;59492;45.638;11.714;2023-05-10T05:37:24;3.10;;;2.80;;
71648;SDS011;59492;45.638;11.714;2023-05-10T05:39:50;3.30;;;2.70;;
71648;SDS011;59492;45.638;11.714;2023-05-10T05:42:15;6.90;;;3.30;;
71648;SDS011;59492;45.638;11.714;2023-05-10T05:44:44;3.20;;;2.90;;
71648;SDS011;59492;45.638;11.714;2023-05-10T05:47:10;3.60;;;3.30;;
71648;SDS011;59492;45.638;11.714;2023-05-10T05:49:36;3.50;;;2.80;;
71648;SDS011;59492;45.638;11.714;2023-05-10T05:52:03;3.30;;;2.60;;
71648;SDS011;59492;45.638;11.714;2023-05-10T05:54:31;3.00;;;2.70;;
71648;SDS011;59492;45.638;11.714;2023-05-10T05:56:57;4.50;;;3.20;;
71648;SDS011;59492;45.638;11.714;2023-05-10T05:59:27;5.30;;;2.90;;
71648;SDS011;59492;45.638;11.714;2023-05-10T06:01:53;3.90;;;2.80;;
71648;SDS011;59492;45.638;11.714;2023-05-10T06:04:18;5.40;;;2.60;;
71648;SDS011;59492;45.638;11.714;2023-05-10T06:06:44;4.60;;;2.90;;
71648;SDS011;59492;45.638;11.714;2023-05-10T06:09:10;3.40;;;2.60;;
71648;SDS011;59492;45.638;11.714;2023-05-10T06:11:36;3.80;;;2.50;;
71648;SDS011;59492;45.638;11.714;2023-05-10T06:14:02;6.10;;;2.80;;
71648;SDS011;59492;45.638;11.714;2023-05-10T06:16:35;4.90;;;2.90;;
71648;SDS011;59492;45.638;11.714;2023-05-10T06:19:01;7.50;;;2.60;;
71648;SDS011;59492;45.638;11.714;2023-05-10T06:21:27;4.00;;;2.60;;
71648;SDS011;59492;45.638;11.714;2023-05-10T06:23:55;3.70;;;2.60;;
71648;SDS011;59492;45.638;11.714;2023-05-10T06:26:21;3.00;;;2.70;;
71648;SDS011;59492;45.638;11.714;2023-05-10T06:28:49;3.70;;;2.50;;
71648;SDS011;59492;45.638;11.714;2023-05-10T06:31:15;3.60;;;2.70;;
71648;SDS011;59492;45.638;11.714;2023-05-10T06:33:41;6.40;;;3.00;;
71648;SDS011;59492;45.638;11.714;2023-05-10T06:36:06;2.60;;;2.30;;
71648;SDS011;59492;45.638;11.714;2023-05-10T06:38:32;3.20;;;2.80;;
71648;SDS011;59492;45.638;11.714;2023-05-10T06:40:58;3.00;;;2.70;;
71648;SDS011;59492;45.638;11.714;2023-05-10T06:43:24;8.30;;;2.60;;
71648;SDS011;59492;45.638;11.714;2023-05-10T06:45:51;4.60;;;2.90;;
71648;SDS011;59492;45.638;11.714;2023-05-10T06:48:19;4.80;;;2.70;;
71648;SDS011;59492;45.638;11.714;2023-05-10T06:50:45;6.10;;;2.50;;
71648;SDS011;59492;45.638;11.714;2023-05-10T06:53:11;4.30;;;2.80;;
71648;SDS011;59492;45.638;11.714;2023-05-10T06:55:37;3.30;;;2.50;;
71648;SDS011;59492;45.638;11.714;2023-05-10T06:58:02;3.00;;;2.40;;
71648;SDS011;59492;45.638;11.714;2023-05-10T07:00:28;3.00;;;2.30;;
71648;SDS011;59492;45.638;11.714;2023-05-10T07:02:55;4.20;;;2.80;;
71648;SDS011;59492;45.638;11.714;2023-05-10T07:05:22;3.90;;;2.70;;
71648;SDS011;59492;45.638;11.714;2023-05-10T07:07:49;2.90;;;2.50;;
71648;SDS011;59492;45.638;11.714;2023-05-10T07:10:26;5.10;;;2.90;;
71648;SDS011;59492;45.638;11.714;2023-05-10T07:12:51;4.90;;;2.40;;
71648;SDS011;59492;45.638;11.714;2023-05-10T07:15:19;8.00;;;2.70;;
71648;SDS011;59492;45.638;11.714;2023-05-10T07:17:56;3.90;;;2.60;;
71648;SDS011;59492;45.638;11.714;2023-05-10T07:20:22;4.90;;;2.20;;
71648;SDS011;59492;45.638;11.714;2023-05-10T07:22:51;6.80;;;3.10;;
71648;SDS011;59492;45.638;11.714;2023-05-10T07:25:19;3.10;;;2.30;;
71648;SDS011;59492;45.638;11.714;2023-05-10T07:27:46;3.20;;;2.80;;
71648;SDS011;59492;45.638;11.714;2023-05-10T07:30:33;3.50;;;2.60;;
71648;SDS011;59492;45.638;11.714;2023-05-10T07:33:26;9.90;;;2.60;;
71648;SDS011;59492;45.638;11.714;2023-05-10T07:35:55;3.40;;;2.60;;
71648;SDS011;59492;45.638;11.714;2023-05-10T07:38:31;3.50;;;2.50;;
71648;SDS011;59492;45.638;11.714;2023-05-10T07:41:03;2.70;;;2.20;;
71648;SDS011;59492;45.638;11.714;2023-05-10T07:43:39;3.00;;;2.70;;
71648;SDS011;59492;45.638;11.714;2023-05-10T07:46:08;3.40;;;2.60;;
71648;SDS011;59492;45.638;11.714;2023-05-10T07:48:37;3.30;;;2.70;;
71648;SDS011;59492;45.638;11.714;2023-05-10T07:51:06;4.50;;;3.20;;
71648;SDS011;59492;45.638;11.714;2023-05-10T07:53:35;4.70;;;2.70;;
71648;SDS011;59492;45.638;11.714;2023-05-10T07:59:19;3.60;;;2.60;;
71648;SDS011;59492;45.638;11.714;2023-05-10T08:02:01;7.40;;;2.30;;
71648;SDS011;59492;45.638;11.714;2023-05-10T08:04:48;5.10;;;2.80;;
71648;SDS011;59492;45.638;11.714;2023-05-10T08:07:21;3.30;;;2.40;;
71648;SDS011;59492;45.638;11.714;2023-05-10T08:09:55;3.60;;;2.50;;
71648;SDS011;59492;45.638;11.714;2023-05-10T08:12:36;3.60;;;2.60;;
71648;SDS011;59492;45.638;11.714;2023-05-10T08:15:19;4.80;;;2.40;;
71648;SDS011;59492;45.638;11.714;2023-05-10T08:17:55;3.90;;;2.60;;
71648;SDS011;59492;45.638;11.714;2023-05-10T08:20:32;3.60;;;2.70;;
71648;SDS011;59492;45.638;11.714;2023-05-10T08:23:01;7.00;;;2.70;;
71648;SDS011;59492;45.638;11.714;2023-05-10T08:25:39;5.60;;;2.50;;
71648;SDS011;59492;45.638;11.714;2023-05-10T08:28:08;11.90;;;2.70;;
71648;SDS011;59492;45.638;11.714;2023-05-10T08:30:47;3.10;;;2.80;;
71648;SDS011;59492;45.638;11.714;2023-05-10T08:33:14;4.60;;;2.70;;
71648;SDS011;59492;45.638;11.714;2023-05-10T08:35:49;4.20;;;2.20;;
71648;SDS011;59492;45.638;11.714;2023-05-10T08:38:33;4.60;;;2.60;;
71648;SDS011;59492;45.638;11.714;2023-05-10T08:41:06;3.20;;;2.60;;
71648;SDS011;59492;45.638;11.714;2023-05-10T08:43:53;5.10;;;2.40;;
71648;SDS011;59492;45.638;11.714;2023-05-10T08:46:29;5.60;;;2.90;;
71648;SDS011;59492;45.638;11.714;2023-05-10T08:49:06;3.20;;;2.40;;
71648;SDS011;59492;45.638;11.714;2023-05-10T08:51:40;3.10;;;2.60;;
71648;SDS011;59492;45.638;11.714;2023-05-10T08:54:06;4.20;;;2.50;;
71648;SDS011;59492;45.638;11.714;2023-05-10T08:56:34;4.40;;;2.70;;
71648;SDS011;59492;45.638;11.714;2023-05-10T08:59:03;3.90;;;2.40;;
71648;SDS011;59492;45.638;11.714;2023-05-10T09:01:31;6.30;;;2.40;;
71648;SDS011;59492;45.638;11.714;2023-05-10T09:03:58;5.30;;;2.60;;
71648;SDS011;59492;45.638;11.714;2023-05-10T09:06:26;4.10;;;2.80;;
71648;SDS011;59492;45.638;11.714;2023-05-10T09:08:56;5.60;;;2.80;;
71648;SDS011;59492;45.638;11.714;2023-05-10T09:11:27;5.50;;;2.70;;
71648;SDS011;59492;45.638;11.714;2023-05-10T09:14:06;2.80;;;2.40;;
71648;SDS011;59492;45.638;11.714;2023-05-10T09:16:47;7.50;;;2.70;;
71648;SDS011;59492;45.638;11.714;2023-05-10T09:19:13;6.60;;;2.60;;
71648;SDS011;59492;45.638;11.714;2023-05-10T09:21:41;5.50;;;2.70;;
71648;SDS011;59492;45.638;11.714;2023-05-10T09:24:14;7.60;;;2.90;;
71648;SDS011;59492;45.638;11.714;2023-05-10T09:26:52;4.90;;;2.90;;
71648;SDS011;59492;45.638;11.714;2023-05-10T09:29:23;3.70;;;2.70;;
71648;SDS011;59492;45.638;11.714;2023-05-10T09:31:51;4.20;;;2.60;;
71648;SDS011;59492;45.638;11.714;2023-05-10T09:34:28;2.50;;;2.30;;
71648;SDS011;59492;45.638;11.714;2023-05-10T09:36:58;4.90;;;2.80;;
71648;SDS011;59492;45.638;11.714;2023-05-10T09:39:35;3.00;;;2.60;;
71648;SDS011;59492;45.638;11.714;2023-05-10T09:42:03;6.50;;;2.60;;
71648;SDS011;59492;45.638;11.714;2023-05-10T09:44:31;3.50;;;2.70;;
71648;SDS011;59492;45.638;11.714;2023-05-10T09:47:01;3.40;;;2.60;;
71648;SDS011;59492;45.638;11.714;2023-05-10T09:49:27;2.80;;;2.50;;
71648;SDS011;59492;45.638;11.714;2023-05-10T09:52:02;3.90;;;2.40;;
71648;SDS011;59492;45.638;11.714;2023-05-10T09:54:30;4.20;;;2.90;;
71648;SDS011;59492;45.638;11.714;2023-05-10T09:56:56;6.10;;;3.10;;
71648;SDS011;59492;45.638;11.714;2023-05-10T09:59:26;7.30;;;3.10;;
71648;SDS011;59492;45.638;11.714;2023-05-10T10:01:57;4.60;;;3.40;;
71648;SDS011;59492;45.638;11.714;2023-05-10T10:04:25;5.70;;;3.20;;
71648;SDS011;59492;45.638;11.714;2023-05-10T10:06:58;6.30;;;3.30;;
71648;SDS011;59492;45.638;11.714;2023-05-10T10:09:25;7.90;;;3.60;;
71648;SDS011;59492;45.638;11.714;2023-05-10T10:23:46;11.30;;;4.00;;
71648;SDS011;59492;45.638;11.714;2023-05-10T10:26:16;6.60;;;3.70;;
71648;SDS011;59492;45.638;11.714;2023-05-10T10:34:32;9.20;;;4.10;;
71648;SDS011;59492;45.638;11.714;2023-05-10T10:37:03;9.90;;;4.10;;
71648;SDS011;59492;45.638;11.714;2023-05-10T10:39:33;7.90;;;3.60;;
71648;SDS011;59492;45.638;11.714;2023-05-10T10:42:01;13.50;;;4.10;;
71648;SDS011;59492;45.638;11.714;2023-05-10T10:57:32;11.00;;;3.80;;
71648;SDS011;59492;45.638;11.714;2023-05-10T11:00:23;9.40;;;3.80;;
71648;SDS011;59492;45.638;11.714;2023-05-10T11:02:51;7.40;;;4.50;;
71648;SDS011;59492;45.638;11.714;2023-05-10T11:05:24;7.30;;;4.10;;
71648;SDS011;59492;45.638;11.714;2023-05-10T11:08:09;8.10;;;4.20;;
71648;SDS011;59492;45.638;11.714;2023-05-10T11:10:48;8.50;;;4.30;;
71648;SDS011;59492;45.638;11.714;2023-05-10T11:13:37;13.90;;;4.00;;
71648;SDS011;59492;45.638;11.714;2023-05-10T11:16:15;10.20;;;3.50;;
71648;SDS011;59492;45.638;11.714;2023-05-10T11:18:58;9.30;;;4.70;;
71648;SDS011;59492;45.638;11.714;2023-05-10T11:21:27;9.90;;;4.40;;
71648;SDS011;59492;45.638;11.714;2023-05-10T11:23:55;12.10;;;4.50;;
71648;SDS011;59492;45.638;11.714;2023-05-10T11:26:22;8.30;;;4.20;;
71648;SDS011;59492;45.638;11.714;2023-05-10T11:28:50;13.00;;;4.90;;
71648;SDS011;59492;45.638;11.714;2023-05-10T11:31:20;11.30;;;5.00;;
71648;SDS011;59492;45.638;11.714;2023-05-10T11:33:54;12.00;;;4.80;;
71648;SDS011;59492;45.638;11.714;2023-05-10T11:36:29;10.30;;;4.30;;
71648;SDS011;59492;45.638;11.714;2023-05-10T11:38:58;10.20;;;4.90;;
71648;SDS011;59492;45.638;11.714;2023-05-10T11:41:27;11.70;;;4.70;;
71648;SDS011;59492;45.638;11.714;2023-05-10T11:43:53;12.10;;;4.80;;
71648;SDS011;59492;45.638;11.714;2023-05-10T11:46:21;7.70;;;4.20;;
71648;SDS011;59492;45.638;11.714;2023-05-10T11:48:51;10.40;;;4.50;;
71648;SDS011;59492;45.638;11.714;2023-05-10T11:51:26;11.70;;;5.20;;
71648;SDS011;59492;45.638;11.714;2023-05-10T11:53:53;8.50;;;4.40;;
71648;SDS011;59492;45.638;11.714;2023-05-10T11:56:19;10.20;;;4.50;;
71648;SDS011;59492;45.638;11.714;2023-05-10T11:58:52;10.70;;;4.50;;
71648;SDS011;59492;45.638;11.714;2023-05-10T12:01:22;13.00;;;4.60;;
71648;SDS011;59492;45.638;11.714;2023-05-10T12:03:52;10.90;;;4.50;;
71648;SDS011;59492;45.638;11.714;2023-05-10T12:06:19;12.90;;;4.00;;
71648;SDS011;59492;45.638;11.714;2023-05-10T12:08:45;13.00;;;4.90;;
71648;SDS011;59492;45.638;11.714;2023-05-10T12:11:12;10.50;;;4.20;;
71648;SDS011;59492;45.638;11.714;2023-05-10T12:13:43;9.70;;;4.30;;
71648;SDS011;59492;45.638;11.714;2023-05-10T12:16:19;12.80;;;4.10;;
71648;SDS011;59492;45.638;11.714;2023-05-10T12:18:50;10.40;;;4.20;;
71648;SDS011;59492;45.638;11.714;2023-05-10T12:21:20;8.20;;;4.30;;
71648;SDS011;59492;45.638;11.714;2023-05-10T12:23:47;14.80;;;4.90;;
71648;SDS011;59492;45.638;11.714;2023-05-10T12:26:15;10.60;;;4.20;;
71648;SDS011;59492;45.638;11.714;2023-05-10T12:28:43;17.40;;;4.30;;
71648;SDS011;59492;45.638;11.714;2023-05-10T12:31:09;13.00;;;4.40;;
71648;SDS011;59492;45.638;11.714;2023-05-10T12:33:37;11.60;;;4.40;;
71648;SDS011;59492;45.638;11.714;2023-05-10T12:36:08;11.80;;;4.50;;
71648;SDS011;59492;45.638;11.714;2023-05-10T12:38:38;7.70;;;3.70;;
71648;SDS011;59492;45.638;11.714;2023-05-10T12:41:12;8.50;;;3.90;;
71648;SDS011;59492;45.638;11.714;2023-05-10T12:43:42;14.20;;;4.20;;
71648;SDS011;59492;45.638;11.714;2023-05-10T12:46:14;8.20;;;4.40;;
71648;SDS011;59492;45.638;11.714;2023-05-10T12:48:42;7.30;;;3.90;;
71648;SDS011;59492;45.638;11.714;2023-05-10T12:51:08;11.10;;;4.10;;
71648;SDS011;59492;45.638;11.714;2023-05-10T12:53:37;8.90;;;3.90;;
71648;SDS011;59492;45.638;11.714;2023-05-10T12:56:03;12.30;;;4.50;;
71648;SDS011;59492;45.638;11.714;2023-05-10T12:58:30;26.70;;;5.20;;
71648;SDS011;59492;45.638;11.714;2023-05-10T13:00:57;7.20;;;3.90;;
71648;SDS011;59492;45.638;11.714;2023-05-10T13:03:23;9.20;;;4.50;;
71648;SDS011;59492;45.638;11.714;2023-05-10T13:05:49;8.10;;;4.20;;
71648;SDS011;59492;45.638;11.714;2023-05-10T13:08:15;7.40;;;3.80;;
71648;SDS011;59492;45.638;11.714;2023-05-10T14:31:08;19.40;;;10.00;;
71648;SDS011;59492;45.638;11.714;2023-05-10T14:33:34;16.80;;;8.50;;
71648;SDS011;59492;45.638;11.714;2023-05-10T14:36:00;17.60;;;8.20;;
71648;SDS011;59492;45.638;11.714;2023-05-10T14:38:25;16.90;;;9.10;;
71648;SDS011;59492;45.638;11.714;2023-05-10T14:40:51;14.80;;;8.30;;
71648;SDS011;59492;45.638;11.714;2023-05-10T14:43:20;15.30;;;8.60;;
71648;SDS011;59492;45.638;11.714;2023-05-10T14:45:46;14.10;;;8.60;;
71648;SDS011;59492;45.638;11.714;2023-05-10T14:48:12;27.80;;;8.10;;
71648;SDS011;59492;45.638;11.714;2023-05-10T14:50:40;18.60;;;7.60;;
71648;SDS011;59492;45.638;11.714;2023-05-10T14:54:00;26.80;;;8.10;;
71648;SDS011;59492;45.638;11.714;2023-05-10T14:56:27;17.00;;;7.90;;
71648;SDS011;59492;45.638;11.714;2023-05-10T14:58:53;14.40;;;7.10;;
71648;SDS011;59492;45.638;11.714;2023-05-10T15:01:18;19.90;;;7.50;;
71648;SDS011;59492;45.638;11.714;2023-05-10T15:03:44;12.30;;;7.40;;
71648;SDS011;59492;45.638;11.714;2023-05-10T15:06:09;14.30;;;7.40;;
71648;SDS011;59492;45.638;11.714;2023-05-10T16:12:35;25.60;;;10.90;;
71648;SDS011;59492;45.638;11.714;2023-05-10T16:15:01;25.70;;;10.10;;
71648;SDS011;59492;45.638;11.714;2023-05-10T18:43:36;12.80;;;5.90;;
71648;SDS011;59492;45.638;11.714;2023-05-10T18:46:02;11.10;;;6.40;;
71648;SDS011;59492;45.638;11.714;2023-05-10T18:48:27;11.80;;;6.90;;
71648;SDS011;59492;45.638;11.714;2023-05-10T18:50:53;13.20;;;6.70;;
71648;SDS011;59492;45.638;11.714;2023-05-10T18:53:19;10.20;;;6.10;;
71648;SDS011;59492;45.638;11.714;2023-05-10T18:55:44;15.00;;;6.50;;
71648;SDS011;59492;45.638;11.714;2023-05-10T18:58:10;12.70;;;6.40;;
71648;SDS011;59492;45.638;11.714;2023-05-10T19:00:36;10.40;;;6.60;;
71648;SDS011;59492;45.638;11.714;2023-05-10T19:03:02;20.40;;;7.10;;
71648;SDS011;59492;45.638;11.714;2023-05-10T19:05:28;12.80;;;6.40;;
71648;SDS011;59492;45.638;11.714;2023-05-10T19:07:55;15.00;;;6.80;;
71648;SDS011;59492;45.638;11.714;2023-05-10T19:10:21;11.30;;;6.50;;
71648;SDS011;59492;45.638;11.714;2023-05-10T19:12:48;11.80;;;6.40;;
71648;SDS011;59492;45.638;11.714;2023-05-10T19:15:14;14.00;;;5.90;;
71648;SDS011;59492;45.638;11.714;2023-05-10T19:17:45;11.30;;;6.20;;
71648;SDS011;59492;45.638;11.714;2023-05-10T19:20:11;11.70;;;6.40;;
71648;SDS011;59492;45.638;11.714;2023-05-10T19:22:37;11.70;;;6.90;;
71648;SDS011;59492;45.638;11.714;2023-05-10T19:25:03;13.10;;;6.10;;
71648;SDS011;59492;45.638;11.714;2023-05-10T19:27:30;13.30;;;6.50;;
71648;SDS011;59492;45.638;11.714;2023-05-10T19:29:56;13.90;;;6.20;;
71648;SDS011;59492;45.638;11.714;2023-05-10T19:32:22;9.50;;;5.70;;
71648;SDS011;59492;45.638;11.714;2023-05-10T19:34:49;8.30;;;5.50;;
71648;SDS011;59492;45.638;11.714;2023-05-10T19:37:15;10.80;;;6.50;;
71648;SDS011;59492;45.638;11.714;2023-05-10T19:39:40;16.90;;;7.00;;
71648;SDS011;59492;45.638;11.714;2023-05-10T19:42:07;11.60;;;6.50;;
71648;SDS011;59492;45.638;11.714;2023-05-10T19:44:33;12.30;;;6.00;;
71648;SDS011;59492;45.638;11.714;2023-05-10T19:46:59;12.10;;;6.30;;
71648;SDS011;59492;45.638;11.714;2023-05-10T19:49:25;9.20;;;5.30;;
71648;SDS011;59492;45.638;11.714;2023-05-10T19:51:53;10.60;;;5.80;;
71648;SDS011;59492;45.638;11.714;2023-05-10T19:54:20;11.60;;;6.20;;
71648;SDS011;59492;45.638;11.714;2023-05-10T19:56:47;10.10;;;6.00;;
71648;SDS011;59492;45.638;11.714;2023-05-10T19:59:13;7.90;;;5.30;;
71648;SDS011;59492;45.638;11.714;2023-05-10T20:01:39;7.80;;;5.50;;
71648;SDS011;59492;45.638;11.714;2023-05-10T20:04:09;11.00;;;5.40;;
71648;SDS011;59492;45.638;11.714;2023-05-10T20:06:35;8.10;;;5.30;;
71648;SDS011;59492;45.638;11.714;2023-05-10T20:09:02;7.00;;;5.10;;
71648;SDS011;59492;45.638;11.714;2023-05-10T20:11:28;7.20;;;4.90;;
71648;SDS011;59492;45.638;11.714;2023-05-10T20:13:54;6.90;;;4.90;;
71648;SDS011;59492;45.638;11.714;2023-05-10T20:16:21;10.10;;;5.40;;
71648;SDS011;59492;45.638;11.714;2023-05-10T20:18:47;9.30;;;4.90;;
71648;SDS011;59492;45.638;11.714;2023-05-10T20:21:13;6.90;;;4.70;;
71648;SDS011;59492;45.638;11.714;2023-05-10T20:23:40;12.10;;;5.10;;
71648;SDS011;59492;45.638;11.714;2023-05-10T20:26:06;9.30;;;5.10;;
71648;SDS011;59492;45.638;11.714;2023-05-10T20:28:32;8.20;;;5.00;;